Time;durP1;ratioP1;P1;durP2;ratioP2;P2;SDS_P1;SDS_P2;PMS_P1;PMS_P2;Temp;Humidity;BMP_temperature;BMP_pressure;BME280_temperature;BME280_humidity;BME280_pressure;Samples;Min_cycle;Max_cycle;Signal;HPM_P1;HPM_P2
2022/03/28 00:01:33;;;;;;;11.57;7.00;;;;;;;7.37;75.05;99066.44;5058483;28;20730;-71
2022/03/28 00:04:00;;;;;;;11.37;7.40;;;;;;;7.27;76.06;99057.22;5061395;28;20717;-71
2022/03/28 00:06:27;;;;;;;12.03;7.43;;;;;;;7.27;76.67;99065.09;5060084;28;20680;-72
2022/03/28 00:08:53;;;;;;;13.37;7.87;;;;;;;7.23;76.40;99060.91;5058850;28;20246;-72
2022/03/28 00:11:20;;;;;;;10.97;7.63;;;;;;;7.17;76.98;99055.91;5057392;28;20227;-72
2022/03/28 00:13:47;;;;;;;12.47;7.80;;;;;;;7.13;77.09;99059.56;5060422;28;20211;-72
2022/03/28 00:16:15;;;;;;;12.50;7.47;;;;;;;7.12;77.91;99055.22;5059830;28;20211;-73
2022/03/28 00:18:41;;;;;;;13.23;8.37;;;;;;;7.08;78.78;99047.53;5058508;28;20586;-73
2022/03/28 00:21:07;;;;;;;11.03;6.80;;;;;;;7.05;78.30;99053.78;5058131;28;20217;-73
2022/03/28 00:23:34;;;;;;;13.03;8.50;;;;;;;6.98;79.25;99049.69;5060413;28;20212;-74
2022/03/28 00:26:01;;;;;;;11.13;7.73;;;;;;;6.95;79.15;99041.91;5060415;28;20243;-72
2022/03/28 00:28:27;;;;;;;9.63;7.20;;;;;;;6.98;79.51;99041.78;5058467;28;20223;-72
2022/03/28 00:30:54;;;;;;;12.47;7.70;;;;;;;6.98;78.80;99033.91;5058330;28;20223;-72
2022/03/28 00:33:21;;;;;;;11.67;7.80;;;;;;;6.93;79.59;99035.88;5059650;28;20219;-71
2022/03/28 00:35:48;;;;;;;11.33;7.70;;;;;;;6.94;79.91;99032.31;5060609;28;20552;-72
2022/03/28 00:38:15;;;;;;;12.53;7.80;;;;;;;6.95;79.92;99033.19;5056380;28;20580;-72
2022/03/28 00:40:42;;;;;;;12.53;7.63;;;;;;;6.96;79.92;99029.63;5058033;28;20231;-72
2022/03/28 00:43:09;;;;;;;12.00;8.07;;;;;;;6.92;79.29;99021.03;5059158;28;20216;-72
2022/03/28 00:45:37;;;;;;;13.47;8.53;;;;;;;6.89;80.37;99018.50;5060874;28;20242;-72
2022/03/28 00:48:05;;;;;;;12.87;8.70;;;;;;;6.82;80.71;99014.41;5057724;28;20223;-72
2022/03/28 00:50:33;;;;;;;14.43;9.00;;;;;;;6.86;80.49;99018.66;5057664;28;20299;-72
2022/03/28 00:53:00;;;;;;;15.93;8.67;;;;;;;6.86;80.24;99016.00;5059229;28;20223;-72
2022/03/28 00:55:27;;;;;;;12.73;8.37;;;;;;;6.85;80.75;99006.41;5060336;28;20219;-72
2022/03/28 00:57:54;;;;;;;11.87;7.97;;;;;;;6.84;80.87;99009.94;5057729;28;20228;-72
2022/03/28 01:00:21;;;;;;;12.00;7.83;;;;;;;6.85;80.92;99008.19;5057098;28;20703;-72
2022/03/28 01:02:48;;;;;;;15.47;8.93;;;;;;;6.80;80.65;99008.38;5058438;28;20332;-72
2022/03/28 01:05:15;;;;;;;12.63;8.90;;;;;;;6.82;81.18;99009.16;5058396;28;20249;-73
2022/03/28 01:07:43;;;;;;;14.80;9.20;;;;;;;6.79;80.60;99013.69;5057548;28;20212;-72
2022/03/28 01:10:12;;;;;;;13.33;8.23;;;;;;;6.85;80.54;99013.44;5057367;28;20225;-72
2022/03/28 01:12:42;;;;;;;15.13;9.30;;;;;;;6.74;80.59;99007.75;5058469;28;20216;-72
2022/03/28 01:15:09;;;;;;;15.77;9.10;;;;;;;6.74;80.06;99007.75;5059820;28;20223;-73
2022/03/28 01:20:23;;;;;;;13.80;8.23;;;;;;;6.61;80.38;99002.16;5057071;28;20215;-72
2022/03/28 01:22:51;;;;;;;13.83;8.77;;;;;;;6.50;81.70;98998.22;5061174;28;20222;-71
2022/03/28 01:25:22;;;;;;;16.30;8.97;;;;;;;6.52;81.23;98997.25;5057586;28;20331;-72
2022/03/28 01:27:49;;;;;;;13.40;7.83;;;;;;;6.45;81.89;98997.53;5057062;28;20247;-71
2022/03/28 01:30:16;;;;;;;13.83;8.13;;;;;;;6.46;81.93;98992.22;5056086;28;20210;-71
2022/03/28 01:32:43;;;;;;;13.80;8.87;;;;;;;6.42;81.94;98990.63;5060590;28;20209;-73
2022/03/28 01:35:09;;;;;;;15.23;9.00;;;;;;;6.40;81.96;98992.47;5056844;28;20707;-73
2022/03/28 01:37:36;;;;;;;16.37;9.30;;;;;;;6.38;81.90;98994.31;5057125;28;20215;-73
2022/03/28 01:40:04;;;;;;;14.30;8.63;;;;;;;6.33;82.32;98988.38;5057223;28;20310;-73
2022/03/28 01:42:31;;;;;;;15.27;9.10;;;;;;;6.24;82.96;98975.59;5053120;28;20222;-73
2022/03/28 01:44:57;;;;;;;12.70;8.30;;;;;;;6.19;82.33;98982.81;5056501;28;20214;-73
2022/03/28 01:47:26;;;;;;;14.80;8.83;;;;;;;6.15;83.11;98981.22;5056878;28;20215;-71
2022/03/28 01:49:53;;;;;;;12.47;8.83;;;;;;;6.10;83.36;98977.91;5057092;28;20233;-72
2022/03/28 01:52:19;;;;;;;14.37;8.67;;;;;;;6.03;84.27;98976.44;5060571;28;20867;-73
2022/03/28 01:54:46;;;;;;;12.27;8.40;;;;;;;6.02;84.25;98979.97;5053778;28;20226;-72
2022/03/28 01:57:14;;;;;;;15.90;9.03;;;;;;;5.96;84.13;98972.34;5058566;28;20211;-71
2022/03/28 01:59:40;;;;;;;14.87;9.63;;;;;;;5.93;84.08;98964.56;5056913;28;20220;-71
2022/03/28 02:02:07;;;;;;;12.60;8.80;;;;;;;5.92;83.41;98968.09;5060375;28;20242;-71
2022/03/28 02:04:33;;;;;;;13.43;9.03;;;;;;;5.87;83.89;98964.78;5057078;28;20219;-71
2022/03/28 02:07:00;;;;;;;16.73;10.23;;;;;;;5.88;83.77;98971.78;5056463;28;20242;-71
2022/03/28 02:09:26;;;;;;;15.57;10.07;;;;;;;5.88;83.00;98965.66;5056814;28;20215;-71
2022/03/28 02:11:54;;;;;;;14.90;9.37;;;;;;;5.79;82.63;98966.81;5059673;28;20305;-71
2022/03/28 02:14:21;;;;;;;14.43;9.70;;;;;;;5.71;82.85;98957.50;5057511;28;20222;-71
2022/03/28 02:16:48;;;;;;;16.60;10.10;;;;;;;5.63;83.11;98957.78;5048083;28;20220;-72
2022/03/28 02:19:14;;;;;;;14.90;9.57;;;;;;;5.60;83.85;98957.03;5058923;28;20226;-71
2022/03/28 02:21:41;;;;;;;17.77;9.37;;;;;;;5.59;85.06;98958.81;5061195;28;20225;-71
2022/03/28 02:24:08;;;;;;;15.07;9.80;;;;;;;5.63;85.26;98965.66;5061734;28;20215;-73
2022/03/28 02:26:34;;;;;;;14.07;9.73;;;;;;;5.75;84.45;98962.59;5060361;28;20246;-72
2022/03/28 02:29:00;;;;;;;14.33;9.80;;;;;;;5.75;84.57;98959.13;5060473;28;20224;-72
2022/03/28 02:31:28;;;;;;;18.50;10.13;;;;;;;5.73;84.16;98961.78;5062655;28;20218;-73
2022/03/28 02:33:55;;;;;;;13.23;9.00;;;;;;;5.71;84.30;98955.75;5061641;28;20668;-73
2022/03/28 02:36:21;;;;;;;15.67;10.13;;;;;;;5.76;83.87;98951.22;5060203;28;20557;-71
2022/03/28 02:38:48;;;;;;;14.70;9.30;;;;;;;5.74;83.03;98947.75;5060088;28;20225;-71
2022/03/28 02:41:14;;;;;;;15.23;9.77;;;;;;;5.65;83.87;98952.50;5062014;28;20217;-71
2022/03/28 02:43:41;;;;;;;16.30;9.27;;;;;;;5.58;84.31;98951.00;5062127;28;20213;-71
2022/03/28 02:46:07;;;;;;;16.07;9.20;;;;;;;5.57;83.81;98952.75;5059894;28;20616;-71
2022/03/28 02:48:35;;;;;;;14.43;9.17;;;;;;;5.48;83.23;98950.50;5058579;28;20219;-72
2022/03/28 02:51:02;;;;;;;15.20;10.13;;;;;;;5.36;83.06;98940.44;5061194;28;20217;-72
2022/03/28 02:53:28;;;;;;;12.93;8.53;;;;;;;5.23;81.63;98944.41;5062367;28;20214;-73
2022/03/28 02:55:55;;;;;;;14.17;9.50;;;;;;;5.12;80.49;98941.31;5059972;28;20219;-71
2022/03/28 02:58:21;;;;;;;17.30;9.50;;;;;;;4.95;82.23;98943.66;5059711;28;20225;-71
2022/03/28 03:00:47;;;;;;;14.27;9.87;;;;;;;4.84;81.98;98945.75;5060791;28;20215;-71
2022/03/28 03:03:14;;;;;;;16.97;9.37;;;;;;;4.70;82.83;98936.69;5062369;28;20242;-71
2022/03/28 03:05:43;;;;;;;17.93;10.47;;;;;;;4.61;83.95;98934.34;5059565;28;20251;-71
2022/03/28 03:08:09;;;;;;;15.50;9.63;;;;;;;4.51;85.93;98935.53;5059770;28;20219;-71
2022/03/28 03:10:36;;;;;;;18.97;10.43;;;;;;;4.44;88.12;98924.44;5060429;28;20218;-71
2022/03/28 03:13:02;;;;;;;14.77;9.67;;;;;;;4.50;87.38;98929.47;5063017;28;20216;-71
2022/03/28 03:15:29;;;;;;;17.80;9.87;;;;;;;4.47;87.45;98926.94;5058042;28;20218;-72
2022/03/28 03:17:55;;;;;;;14.63;9.30;;;;;;;4.46;85.11;98922.63;5059214;28;20688;-72
2022/03/28 03:20:22;;;;;;;14.83;10.03;;;;;;;4.31;85.80;98922.25;5059205;28;20231;-71
2022/03/28 03:22:50;;;;;;;14.90;9.23;;;;;;;4.26;86.52;98929.38;5063207;28;20217;-73
2022/03/28 03:25:16;;;;;;;16.20;9.57;;;;;;;4.28;87.47;98917.13;5056787;28;20587;-72
2022/03/28 03:27:43;;;;;;;16.07;10.03;;;;;;;4.28;88.71;98923.19;5059498;28;20233;-72
2022/03/28 03:30:11;;;;;;;15.47;10.37;;;;;;;4.32;89.19;98922.22;5057894;28;20223;-71
2022/03/28 03:32:38;;;;;;;17.37;10.07;;;;;;;4.27;87.04;98925.88;5054878;28;20217;-72
2022/03/28 03:35:06;;;;;;;15.90;9.30;;;;;;;4.11;86.95;98924.66;5062245;28;20213;-73
2022/03/28 03:37:33;;;;;;;15.53;9.87;;;;;;;4.07;87.81;98923.88;5059161;28;20212;-73
2022/03/28 03:40:01;;;;;;;14.40;9.07;;;;;;;4.09;88.53;98914.22;5057566;28;20217;-71
2022/03/28 03:42:27;;;;;;;14.33;9.33;;;;;;;4.08;89.96;98920.38;5055475;28;20224;-72
2022/03/28 03:44:54;;;;;;;15.80;9.90;;;;;;;4.14;90.11;98914.94;5056256;28;20222;-72
2022/03/28 03:47:21;;;;;;;15.90;9.40;;;;;;;4.06;89.14;98927.41;5059058;28;20238;-72
2022/03/28 03:49:47;;;;;;;15.60;9.60;;;;;;;3.96;85.82;98920.75;5059101;28;20228;-71
2022/03/28 03:52:14;;;;;;;17.90;9.47;;;;;;;3.87;84.54;98926.25;5062260;28;20228;-71
2022/03/28 03:54:40;;;;;;;16.93;9.43;;;;;;;3.70;85.09;98923.28;5059252;28;20588;-72
2022/03/28 03:57:08;;;;;;;15.77;9.97;;;;;;;3.69;85.91;98932.03;5058845;28;20221;-71
2022/03/28 03:59:35;;;;;;;15.07;9.43;;;;;;;3.61;86.33;98928.75;5058783;28;20600;-72
2022/03/28 04:02:02;;;;;;;13.20;8.87;;;;;;;3.56;87.22;98920.19;5061746;28;20613;-72
2022/03/28 04:04:28;;;;;;;13.83;9.40;;;;;;;3.58;87.75;98928.88;5058980;28;20697;-72
2022/03/28 04:06:55;;;;;;;13.73;8.80;;;;;;;3.57;89.25;98924.56;5056949;28;20243;-70
2022/03/28 04:09:21;;;;;;;15.63;9.43;;;;;;;3.62;90.17;98912.19;5058458;28;20212;-72
2022/03/28 04:11:48;;;;;;;14.07;9.10;;;;;;;3.70;90.73;98910.22;5060881;28;20212;-72
2022/03/28 04:14:16;;;;;;;17.83;8.90;;;;;;;3.77;86.59;98909.13;5059862;28;20261;-72
2022/03/28 04:16:43;;;;;;;15.20;8.83;;;;;;;3.69;86.85;98908.50;5058342;28;20252;-72
2022/03/28 04:19:09;;;;;;;13.07;8.17;;;;;;;3.66;87.28;98911.19;5058181;28;20222;-72
2022/03/28 04:21:36;;;;;;;17.17;9.80;;;;;;;3.64;88.37;98910.41;5060508;28;20243;-73
2022/03/28 04:24:02;;;;;;;19.73;9.60;;;;;;;3.63;89.31;98916.53;5059809;28;20596;-72
2022/03/28 04:26:29;;;;;;;13.33;8.10;;;;;;;3.61;90.30;98907.84;5057825;28;20713;-72
2022/03/28 04:28:55;;;;;;;15.93;9.23;;;;;;;3.68;90.48;98908.56;5058183;28;20231;-72
2022/03/28 04:31:23;;;;;;;12.47;8.73;;;;;;;3.71;90.63;98909.31;5059109;28;20223;-72
2022/03/28 04:33:49;;;;;;;13.10;9.20;;;;;;;3.74;90.49;98908.38;5059389;28;20593;-71
2022/03/28 04:36:16;;;;;;;16.10;9.13;;;;;;;3.80;90.51;98909.03;5058016;28;20220;-72
2022/03/28 04:38:42;;;;;;;14.87;9.17;;;;;;;3.80;90.56;98903.78;5057912;28;20219;-72
2022/03/28 04:41:09;;;;;;;14.20;8.77;;;;;;;3.82;91.09;98904.63;5058973;28;20234;-72
2022/03/28 04:43:35;;;;;;;16.97;9.57;;;;;;;3.86;89.56;98900.16;5060413;28;20235;-72
2022/03/28 04:46:01;;;;;;;13.33;9.30;;;;;;;3.86;88.03;98902.78;5057443;28;20225;-71
2022/03/28 04:48:29;;;;;;;13.17;9.10;;;;;;;3.79;88.07;98907.31;5057912;28;20593;-72
2022/03/28 04:50:56;;;;;;;14.20;9.20;;;;;;;3.80;88.96;98909.03;5058531;28;20214;-70
2022/03/28 04:53:22;;;;;;;16.20;9.50;;;;;;;3.81;89.83;98907.28;5060425;28;20211;-72
2022/03/28 04:55:49;;;;;;;15.20;9.17;;;;;;;3.89;89.21;98916.59;5057697;28;20215;-73
2022/03/28 04:58:16;;;;;;;17.10;9.37;;;;;;;3.89;89.46;98919.22;5056071;28;20227;-72
2022/03/28 05:00:43;;;;;;;14.03;9.17;;;;;;;3.85;89.73;98911.53;5058144;28;20295;-71
2022/03/28 05:03:09;;;;;;;15.73;9.37;;;;;;;3.91;89.66;98911.34;5061040;28;20261;-72
2022/03/28 05:05:37;;;;;;;17.03;9.87;;;;;;;3.86;89.43;98908.84;5057576;28;20223;-72
2022/03/28 05:08:04;;;;;;;17.43;10.10;;;;;;;3.84;89.64;98910.66;5057578;28;20244;-73
2022/03/28 05:10:30;;;;;;;12.63;8.50;;;;;;;3.85;89.82;98909.75;5057752;28;20216;-72
2022/03/28 05:12:57;;;;;;;12.70;8.97;;;;;;;3.90;89.89;98907.84;5061215;28;20215;-71
2022/03/28 05:15:23;;;;;;;16.23;9.77;;;;;;;3.95;89.37;98908.56;5056799;28;20216;-71
2022/03/28 05:17:50;;;;;;;16.47;8.97;;;;;;;3.94;89.29;98904.25;5057411;28;20213;-72
2022/03/28 05:20:16;;;;;;;16.03;9.37;;;;;;;4.01;89.11;98902.28;5057408;28;20216;-71
2022/03/28 05:22:44;;;;;;;14.07;8.80;;;;;;;4.05;87.81;98899.56;5060849;28;20576;-73
2022/03/28 05:25:11;;;;;;;12.37;8.70;;;;;;;4.08;88.90;98899.44;5057106;28;20207;-72
2022/03/28 05:27:44;;;;;;;14.23;9.23;;;;;;;4.11;88.53;98915.06;5059581;28;20701;-71
2022/03/28 05:30:12;;;;;;;13.63;8.70;;;;;;;4.14;88.19;98901.84;5060146;28;20208;-71
2022/03/28 05:32:39;;;;;;;13.10;8.20;;;;;;;4.16;88.27;98902.66;5056466;28;20231;-72
2022/03/28 05:35:06;;;;;;;13.83;8.97;;;;;;;4.26;87.93;98901.47;5060120;28;20212;-71
2022/03/28 05:37:34;;;;;;;15.47;8.10;;;;;;;4.31;87.03;98910.03;5060055;28;20216;-70
2022/03/28 05:40:02;;;;;;;15.07;8.37;;;;;;;4.30;86.64;98904.84;5060176;28;20225;-70
2022/03/28 05:42:29;;;;;;;11.63;8.27;;;;;;;4.28;87.64;98907.50;5063192;28;20216;-72
2022/03/28 05:44:56;;;;;;;16.07;9.10;;;;;;;4.29;87.82;98914.44;5060446;28;20229;-72
2022/03/28 05:47:22;;;;;;;14.77;8.73;;;;;;;4.28;88.19;98906.66;5057210;28;20237;-71
2022/03/28 05:49:48;;;;;;;17.53;9.43;;;;;;;4.36;88.12;98902.03;5055439;28;20235;-72
2022/03/28 05:52:15;;;;;;;14.63;9.83;;;;;;;4.45;87.10;98905.19;5053098;28;20216;-71
2022/03/28 05:54:42;;;;;;;14.97;9.00;;;;;;;4.57;85.68;98907.41;5060205;28;20737;-72
2022/03/28 05:57:10;;;;;;;17.83;9.40;;;;;;;4.67;84.45;98908.84;5061231;28;20215;-72
2022/03/28 05:59:36;;;;;;;15.60;9.23;;;;;;;4.62;84.92;98907.25;5061071;28;20223;-71
2022/03/28 06:02:03;;;;;;;15.20;9.27;;;;;;;4.63;85.06;98909.84;5064421;28;20240;-72
2022/03/28 06:04:30;;;;;;;15.77;8.67;;;;;;;4.69;85.22;98904.41;5061252;28;20227;-72
2022/03/28 06:06:56;;;;;;;14.63;9.10;;;;;;;4.78;85.18;98904.09;5060619;28;20232;-70
2022/03/28 06:09:24;;;;;;;15.63;9.47;;;;;;;4.87;85.08;98910.75;5060576;28;20225;-71
2022/03/28 06:11:51;;;;;;;18.50;10.03;;;;;;;5.03;84.33;98910.19;5063965;28;20304;-71
2022/03/28 06:14:19;;;;;;;16.50;8.80;;;;;;;5.11;84.60;98916.03;5061350;28;20219;-72
2022/03/28 06:16:45;;;;;;;14.13;9.33;;;;;;;5.21;85.01;98913.94;5058796;28;20218;-73
2022/03/28 06:19:12;;;;;;;16.93;9.80;;;;;;;5.34;83.94;98910.81;5060676;28;20243;-72
2022/03/28 06:21:38;;;;;;;15.37;9.97;;;;;;;5.54;82.92;98916.19;5063768;28;20225;-72
2022/03/28 06:24:06;;;;;;;16.43;10.03;;;;;;;5.66;82.05;98918.34;5061494;28;20240;-71
2022/03/28 06:26:32;;;;;;;13.50;9.20;;;;;;;5.70;81.79;98917.34;5051210;28;20733;-71
2022/03/28 06:28:59;;;;;;;13.40;9.60;;;;;;;5.80;82.44;98921.34;5060472;28;20227;-71
2022/03/28 06:31:27;;;;;;;18.90;9.80;;;;;;;5.93;80.48;98916.50;5063061;28;20328;-71
2022/03/28 06:34:01;;;;;;;17.70;9.60;;;;;;;6.04;80.43;98923.03;5061104;28;20681;-72
2022/03/28 06:36:28;;;;;;;16.97;9.43;;;;;;;6.18;79.10;98918.09;5051938;28;20668;-71
2022/03/28 06:38:55;;;;;;;16.40;10.07;;;;;;;6.30;78.61;98920.22;5060094;28;20218;-71
2022/03/28 06:41:21;;;;;;;14.43;9.30;;;;;;;6.40;76.85;98918.97;5062888;28;20692;-71
2022/03/28 06:43:48;;;;;;;16.30;9.50;;;;;;;6.58;77.31;98922.59;5059838;28;20712;-71
2022/03/28 06:46:14;;;;;;;15.20;10.43;;;;;;;6.70;75.94;98917.72;5058122;28;20223;-71
2022/03/28 06:48:42;;;;;;;17.23;9.97;;;;;;;6.83;75.49;98908.41;5060132;28;20235;-71
2022/03/28 06:51:09;;;;;;;14.50;9.40;;;;;;;6.97;75.84;98911.28;5063039;28;20680;-70
2022/03/28 06:53:35;;;;;;;15.47;9.63;;;;;;;7.09;74.59;98910.75;5060550;28;20230;-71
2022/03/28 06:56:03;;;;;;;16.67;9.80;;;;;;;7.26;73.50;98908.25;5050697;28;20254;-71
2022/03/28 06:58:29;;;;;;;15.00;9.60;;;;;;;7.35;74.02;98908.72;5059946;28;20685;-71
2022/03/28 07:00:56;;;;;;;16.00;9.43;;;;;;;7.45;73.81;98902.13;5062309;28;20222;-72
2022/03/28 07:03:22;;;;;;;14.47;9.23;;;;;;;7.59;73.59;98909.41;5061221;28;20213;-71
2022/03/28 07:05:50;;;;;;;21.13;10.23;;;;;;;7.70;73.02;98904.50;5059505;28;20215;-70
2022/03/28 07:08:16;;;;;;;16.83;9.80;;;;;;;7.86;71.86;98895.00;5057811;28;20248;-71
2022/03/28 07:10:43;;;;;;;16.37;9.37;;;;;;;8.00;70.76;98895.19;5061929;28;20235;-71
2022/03/28 07:13:10;;;;;;;20.83;9.33;;;;;;;8.19;69.20;98888.13;5061378;28;20212;-71
2022/03/28 07:15:36;;;;;;;16.03;9.57;;;;;;;8.25;68.43;98901.91;5059670;28;20208;-71
2022/03/28 07:18:06;;;;;;;18.73;10.33;;;;;;;8.32;67.14;98905.94;5059704;28;20558;-71
2022/03/28 07:20:33;;;;;;;18.90;9.47;;;;;;;8.49;67.71;98902.50;5061407;28;20212;-71
2022/03/28 07:23:03;;;;;;;14.67;9.20;;;;;;;8.58;67.82;98899.41;5061094;28;20223;-71
2022/03/28 07:25:29;;;;;;;17.87;9.17;;;;;;;8.70;67.62;98901.44;5059180;28;20216;-70
2022/03/28 07:27:57;;;;;;;14.13;8.67;;;;;;;8.83;66.23;98895.50;5059252;28;20240;-70
2022/03/28 07:30:24;;;;;;;18.10;10.47;;;;;;;8.92;66.41;98895.03;5061546;28;20215;-70
2022/03/28 07:32:51;;;;;;;11.93;8.87;;;;;;;9.03;66.36;98897.13;5060661;28;20560;-71
2022/03/28 07:35:21;;;;;;;15.83;10.07;;;;;;;9.16;65.41;98890.28;5057734;28;20258;-70
2022/03/28 07:37:48;;;;;;;15.27;9.40;;;;;;;9.30;65.25;98900.97;5059061;28;20216;-71
2022/03/28 07:40:16;;;;;;;17.07;9.57;;;;;;;9.42;64.66;98887.16;5061176;28;20219;-71
2022/03/28 07:42:43;;;;;;;12.67;9.20;;;;;;;9.60;64.27;98894.09;5060470;28;20219;-71
2022/03/28 07:45:10;;;;;;;14.73;9.50;;;;;;;9.68;64.00;98889.25;5059130;28;20208;-71
2022/03/28 07:47:37;;;;;;;15.57;10.00;;;;;;;9.79;62.62;98889.53;5058989;28;20239;-71
2022/03/28 07:50:04;;;;;;;15.53;10.20;;;;;;;9.90;62.28;98880.09;5061195;28;20227;-71
2022/03/28 07:52:31;;;;;;;15.37;9.40;;;;;;;10.04;62.02;98876.72;5060244;28;20695;-71
2022/03/28 07:54:58;;;;;;;14.73;9.67;;;;;;;10.14;61.96;98883.19;5059055;28;20244;-71
2022/03/28 07:57:26;;;;;;;14.40;9.90;;;;;;;10.27;60.91;98882.44;5058656;28;20255;-71
2022/03/28 07:59:53;;;;;;;15.30;10.53;;;;;;;10.38;60.91;98876.53;5059268;28;20216;-71
2022/03/28 08:02:20;;;;;;;14.90;10.07;;;;;;;10.51;60.24;98872.28;5060103;28;20704;-71
2022/03/28 08:04:47;;;;;;;16.07;10.27;;;;;;;10.62;59.59;98869.84;5058737;28;20217;-72
2022/03/28 08:07:14;;;;;;;16.17;9.80;;;;;;;10.70;58.79;98872.91;5058628;28;20248;-72
2022/03/28 08:09:41;;;;;;;20.17;11.07;;;;;;;10.82;58.37;98872.22;5060184;28;20679;-70
2022/03/28 08:12:09;;;;;;;18.30;10.20;;;;;;;10.95;58.83;98871.38;5060156;28;20295;-70
2022/03/28 08:14:37;;;;;;;16.27;9.87;;;;;;;11.07;57.76;98862.72;5058260;28;20217;-70
2022/03/28 08:17:05;;;;;;;14.47;9.50;;;;;;;11.25;57.64;98855.50;5057932;28;20223;-71
2022/03/28 08:19:32;;;;;;;16.97;10.00;;;;;;;11.44;56.76;98851.59;5060559;28;20217;-71
2022/03/28 08:21:58;;;;;;;15.00;9.90;;;;;;;11.60;57.30;98862.13;5060006;28;20205;-71
2022/03/28 08:24:25;;;;;;;16.83;10.20;;;;;;;11.67;56.15;98855.53;5057945;28;20227;-71
2022/03/28 08:26:52;;;;;;;17.77;11.10;;;;;;;11.63;53.56;98856.66;5055629;28;20648;-70
2022/03/28 08:29:18;;;;;;;15.43;10.37;;;;;;;11.74;54.06;98856.84;5059561;28;20275;-70
2022/03/28 08:31:46;;;;;;;13.97;9.97;;;;;;;11.93;53.91;98860.06;5060396;28;20561;-72
2022/03/28 08:34:12;;;;;;;16.27;10.23;;;;;;;11.98;53.07;98850.00;5058089;28;20220;-72
2022/03/28 08:36:39;;;;;;;17.00;10.40;;;;;;;11.98;51.89;98845.56;5057738;28;20222;-72
2022/03/28 08:39:06;;;;;;;18.83;10.77;;;;;;;12.06;51.74;98845.94;5057740;28;20211;-70
2022/03/28 08:41:34;;;;;;;18.17;10.73;;;;;;;12.22;51.08;98843.16;5058925;28;20215;-72
2022/03/28 08:44:01;;;;;;;15.57;11.07;;;;;;;12.34;50.58;98839.72;5056393;28;20227;-71
2022/03/28 08:46:29;;;;;;;14.03;10.37;;;;;;;12.45;50.43;98846.00;5053058;28;20219;-71
2022/03/28 08:48:58;;;;;;;17.77;10.70;;;;;;;12.49;50.27;98842.22;5056634;28;20246;-70
2022/03/28 08:51:27;;;;;;;15.27;10.63;;;;;;;12.69;50.68;98840.88;5057905;28;20221;-70
2022/03/28 08:53:53;;;;;;;16.97;11.57;;;;;;;12.88;51.52;98836.91;5053055;28;20243;-71
2022/03/28 08:56:20;;;;;;;16.90;11.37;;;;;;;13.09;51.12;98829.31;5041715;28;20216;-72
2022/03/28 08:58:46;;;;;;;17.17;10.73;;;;;;;13.26;47.68;98839.63;5038918;28;20215;-71
2022/03/28 09:01:13;;;;;;;17.83;11.50;;;;;;;13.35;48.69;98837.19;5052497;28;20226;-71
2022/03/28 09:03:44;;;;;;;18.03;11.00;;;;;;;13.49;47.91;98838.88;5053358;28;20580;-70
2022/03/28 09:06:34;;;;;;;18.60;11.30;;;;;;;13.48;47.31;98837.19;5053930;28;20349;-70
2022/03/28 09:09:12;;;;;;;17.13;10.30;;;;;;;13.52;46.76;98830.72;5052970;28;20273;-71
2022/03/28 09:11:38;;;;;;;17.07;11.07;;;;;;;13.64;46.80;98824.53;5053760;28;20215;-70
2022/03/28 09:14:05;;;;;;;17.60;10.53;;;;;;;13.93;45.87;98818.00;5053684;28;20677;-70
2022/03/28 09:16:34;;;;;;;16.47;11.73;;;;;;;13.98;46.17;98808.72;5055632;28;20220;-70
2022/03/28 09:19:07;;;;;;;17.77;11.13;;;;;;;14.12;45.56;98799.75;5052010;28;20366;-70
2022/03/28 09:21:35;;;;;;;18.23;11.33;;;;;;;14.29;44.50;98799.41;5051793;28;20677;-70
2022/03/28 09:24:04;;;;;;;20.23;10.83;;;;;;;14.43;43.89;98808.03;5053719;28;20223;-70
2022/03/28 09:26:31;;;;;;;15.33;11.23;;;;;;;14.48;43.87;98800.59;5054717;28;20211;-70
2022/03/28 09:29:00;;;;;;;19.10;10.90;;;;;;;14.64;44.33;98789.66;5053340;28;20578;-70
2022/03/28 09:31:30;;;;;;;17.00;11.10;;;;;;;14.87;44.11;98792.28;5053358;28;20678;-71
2022/03/28 09:34:15;;;;;;;15.73;11.23;;;;;;;15.08;42.20;98782.63;5053277;28;20220;-70
2022/03/28 09:36:49;;;;;;;21.10;11.90;;;;;;;15.24;43.35;98775.19;5044665;28;20215;-70
2022/03/28 09:39:18;;;;;;;16.60;11.63;;;;;;;15.34;42.23;98764.69;5061501;28;20219;-70
2022/03/28 09:41:47;;;;;;;20.27;11.60;;;;;;;15.37;42.41;98765.28;5053210;28;20251;-70
2022/03/28 09:44:14;;;;;;;16.37;11.10;;;;;;;15.43;42.94;98764.81;5054436;28;20687;-70
2022/03/28 09:46:40;;;;;;;19.90;11.53;;;;;;;15.52;42.48;98760.56;5051666;28;20689;-70
2022/03/28 09:49:08;;;;;;;20.00;12.37;;;;;;;15.69;41.85;98765.38;5053141;28;20267;-71
2022/03/28 09:51:36;;;;;;;20.23;11.90;;;;;;;15.73;41.29;98757.06;5053292;28;20564;-70
2022/03/28 09:54:18;;;;;;;20.97;11.43;;;;;;;15.94;41.75;98754.47;5054429;28;20219;-70
2022/03/28 09:56:44;;;;;;;20.40;11.73;;;;;;;16.00;41.08;98748.66;5053386;28;20608;-70
2022/03/28 09:59:12;;;;;;;19.80;12.00;;;;;;;16.22;41.40;98747.59;5053239;28;20216;-69
2022/03/28 10:01:40;;;;;;;18.43;11.90;;;;;;;16.41;40.50;98745.13;5053821;28;20240;-69
2022/03/28 10:04:09;;;;;;;18.27;12.00;;;;;;;16.45;40.74;98732.41;5053611;28;20223;-69
2022/03/28 10:06:37;;;;;;;16.83;11.13;;;;;;;16.51;40.00;98734.56;5053401;28;20303;-69
2022/03/28 10:09:06;;;;;;;18.27;12.00;;;;;;;16.58;38.36;98736.56;5053094;28;20240;-71
2022/03/28 10:11:33;;;;;;;18.60;11.80;;;;;;;16.59;37.80;98730.25;5054276;28;20226;-70
2022/03/28 10:14:00;;;;;;;21.07;11.80;;;;;;;16.57;38.22;98734.06;5051753;28;20212;-68
2022/03/28 10:16:27;;;;;;;19.87;12.10;;;;;;;16.56;39.03;98727.84;5052954;28;20269;-70
2022/03/28 10:18:53;;;;;;;18.93;12.13;;;;;;;16.74;37.89;98725.44;5053075;28;20223;-69
2022/03/28 10:21:24;;;;;;;18.80;12.80;;;;;;;16.83;36.98;98719.34;5052993;28;20216;-69
2022/03/28 10:23:55;;;;;;;17.93;11.90;;;;;;;16.85;37.05;98720.03;5039647;28;20235;-69
2022/03/28 10:26:28;;;;;;;19.57;12.37;;;;;;;16.97;36.22;98711.84;5053104;28;20212;-69
2022/03/28 10:29:07;;;;;;;18.60;11.70;;;;;;;17.13;36.66;98716.72;5052964;28;20236;-69
2022/03/28 10:31:34;;;;;;;17.70;11.57;;;;;;;17.20;37.24;98712.53;5051856;28;20215;-69
2022/03/28 10:34:01;;;;;;;18.83;11.90;;;;;;;17.33;36.68;98702.47;5053063;28;20212;-70
2022/03/28 10:36:29;;;;;;;19.97;11.73;;;;;;;17.39;35.96;98694.81;5052702;28;20674;-70
2022/03/28 10:39:32;;;;;;;20.07;11.83;;;;;;;17.44;35.80;98695.22;5051968;28;20216;-70
2022/03/28 10:42:09;;;;;;;18.53;12.00;;;;;;;17.39;35.60;98688.59;5047010;28;20215;-70
2022/03/28 10:44:46;;;;;;;18.57;11.17;;;;;;;17.50;35.24;98681.31;5056470;28;20223;-70
2022/03/28 10:47:14;;;;;;;20.33;11.40;;;;;;;17.75;35.40;98678.16;5058130;28;20219;-69
2022/03/28 10:49:43;;;;;;;15.53;11.17;;;;;;;17.82;34.27;98676.63;5056099;28;20236;-71
2022/03/28 10:52:14;;;;;;;18.53;11.13;;;;;;;17.79;34.38;98666.19;5056543;28;20585;-70
2022/03/28 10:54:41;;;;;;;18.40;11.83;;;;;;;17.90;34.06;98663.41;5056533;28;20595;-70
2022/03/28 10:57:26;;;;;;;17.80;11.90;;;;;;;17.91;34.67;98661.59;5057615;28;20241;-69
2022/03/28 11:00:02;;;;;;;18.77;11.87;;;;;;;17.92;34.99;98650.72;5056298;28;20227;-69
2022/03/28 11:02:29;;;;;;;18.70;12.43;;;;;;;17.89;34.58;98652.84;5056429;28;20267;-70
2022/03/28 11:05:05;;;;;;;19.63;11.90;;;;;;;17.81;34.33;98645.50;5054329;28;20223;-69
2022/03/28 11:07:32;;;;;;;20.17;11.73;;;;;;;17.92;34.02;98645.38;5054817;28;20208;-69
2022/03/28 11:10:03;;;;;;;18.63;12.00;;;;;;;18.01;34.48;98636.53;5055995;28;20251;-68
2022/03/28 11:12:34;;;;;;;20.07;11.90;;;;;;;18.18;35.14;98633.16;5057186;28;20216;-69
2022/03/28 11:15:05;;;;;;;17.83;11.20;;;;;;;18.33;35.15;98634.47;5042942;28;20240;-69
2022/03/28 11:17:33;;;;;;;18.80;12.20;;;;;;;18.52;34.18;98626.41;5056353;28;20226;-69
2022/03/28 11:20:03;;;;;;;16.77;11.67;;;;;;;18.45;34.63;98619.06;5055942;28;20572;-69
2022/03/28 11:22:40;;;;;;;17.00;12.07;;;;;;;18.47;34.96;98627.81;5057402;28;20303;-69
2022/03/28 11:25:29;;;;;;;20.80;13.27;;;;;;;18.67;34.21;98622.31;5055746;28;20215;-68
2022/03/28 11:28:05;;;;;;;19.43;12.27;;;;;;;18.70;34.37;98619.31;5055490;28;20216;-69
2022/03/28 11:30:31;;;;;;;20.83;12.47;;;;;;;18.84;34.88;98616.16;5053869;28;20694;-70
2022/03/28 11:32:59;;;;;;;20.97;12.50;;;;;;;18.81;33.72;98613.78;5054209;28;20222;-70